Time;durP1;ratioP1;P1;durP2;ratioP2;P2;SDS_P1;SDS_P2;PMS_P1;PMS_P2;Temp;Humidity;BMP_temperature;BMP_pressure;BME280_temperature;BME280_humidity;BME280_pressure;Samples;Min_cycle;Max_cycle;Signal;HPM_P1;HPM_P2
2023/07/06 00:01:46;;;;;;;9.18;5.10;;;12.50;99.90;;;;;;5080555;28;20146;-56
2023/07/06 00:04:13;;;;;;;11.85;4.15;;;12.50;99.90;;;;;;5080272;28;20586;-56
2023/07/06 00:06:39;;;;;;;8.02;3.72;;;12.50;99.90;;;;;;5080593;28;20101;-54
2023/07/06 00:09:05;;;;;;;8.43;4.20;;;12.40;99.90;;;;;;5079423;28;20466;-56
2023/07/06 00:11:39;;;;;;;9.93;4.85;;;12.50;99.90;;;;;;5079933;28;20139;-55
2023/07/06 00:14:10;;;;;;;9.50;4.60;;;12.40;99.90;;;;;;5077909;28;20092;-55
2023/07/06 00:16:35;;;;;;;8.70;4.43;;;12.50;99.90;;;;;;5079299;28;20044;-56
2023/07/06 00:19:01;;;;;;;7.55;4.10;;;12.40;99.90;;;;;;5079346;28;20048;-55
2023/07/06 00:21:30;;;;;;;11.10;4.75;;;12.40;99.90;;;;;;5078668;28;20416;-55
2023/07/06 00:23:55;;;;;;;9.98;4.70;;;12.30;99.90;;;;;;5079362;28;20053;-55
2023/07/06 00:26:21;;;;;;;9.27;4.82;;;12.30;99.90;;;;;;5077927;28;20511;-56
2023/07/06 00:28:51;;;;;;;7.78;4.57;;;12.30;99.90;;;;;;5079215;28;20462;-57
2023/07/06 00:31:31;;;;;;;9.90;4.63;;;12.30;99.90;;;;;;5078739;28;20037;-55
2023/07/06 00:34:03;;;;;;;9.23;4.72;;;12.20;99.90;;;;;;5078907;28;20482;-56
2023/07/06 00:36:31;;;;;;;10.38;5.30;;;12.30;99.90;;;;;;5078769;28;20048;-56
2023/07/06 00:38:57;;;;;;;9.13;5.05;;;12.20;99.90;;;;;;5078240;28;20032;-56
2023/07/06 00:41:22;;;;;;;10.48;4.85;;;12.40;99.90;;;;;;5079041;28;20051;-56
2023/07/06 00:43:54;;;;;;;11.40;4.45;;;12.30;99.90;;;;;;5078024;28;20041;-55
2023/07/06 00:46:23;;;;;;;9.02;4.60;;;12.40;99.90;;;;;;5077254;28;20056;-56
2023/07/06 00:48:51;;;;;;;10.93;5.18;;;12.40;99.90;;;;;;5078828;28;20048;-56
2023/07/06 00:51:19;;;;;;;10.02;4.85;;;12.30;99.90;;;;;;5078270;28;20100;-56
2023/07/06 00:53:51;;;;;;;9.75;4.97;;;12.30;99.90;;;;;;5078427;28;20052;-56
2023/07/06 00:56:23;;;;;;;10.52;5.03;;;12.40;99.90;;;;;;5077714;28;20037;-56
2023/07/06 00:58:52;;;;;;;9.95;4.53;;;12.30;99.90;;;;;;5078917;28;20066;-56
2023/07/06 01:01:19;;;;;;;10.13;4.93;;;12.20;99.90;;;;;;5078181;28;20056;-56
2023/07/06 01:03:52;;;;;;;10.55;5.30;;;12.20;99.90;;;;;;5078273;28;20086;-55
2023/07/06 01:06:32;;;;;;;9.05;5.05;;;12.20;99.90;;;;;;5078490;28;20040;-55
2023/07/06 01:08:58;;;;;;;11.45;5.53;;;12.20;99.90;;;;;;5059513;28;20182;-55
2023/07/06 01:11:24;;;;;;;9.13;4.53;;;12.20;99.90;;;;;;5041395;28;1096618;-56
2023/07/06 01:13:57;;;;;;;13.55;5.20;;;12.10;99.90;;;;;;5078671;28;20071;-56
2023/07/06 01:16:28;;;;;;;13.57;5.57;;;12.10;99.90;;;;;;5079273;28;20048;-56
2023/07/06 01:19:20;;;;;;;9.13;5.28;;;12.10;99.90;;;;;;5079372;28;20056;-55
2023/07/06 01:21:55;;;;;;;13.45;6.45;;;12.10;99.90;;;;;;5078151;28;20136;-56
2023/07/06 01:24:43;;;;;;;10.45;5.55;;;12.10;99.90;;;;;;5079479;28;20063;-56
2023/07/06 01:27:18;;;;;;;10.45;5.68;;;12.10;99.90;;;;;;5077898;28;20506;-55
2023/07/06 01:30:02;;;;;;;13.45;5.85;;;12.10;99.90;;;;;;5078381;28;20059;-55
2023/07/06 01:32:32;;;;;;;8.95;5.13;;;12.10;99.90;;;;;;5079185;28;20056;-54
2023/07/06 01:35:09;;;;;;;10.25;5.38;;;12.10;99.90;;;;;;5077744;28;20041;-56
2023/07/06 01:37:41;;;;;;;11.30;5.90;;;12.20;99.90;;;;;;5078502;28;20044;-56
2023/07/06 01:40:09;;;;;;;11.52;5.45;;;12.10;99.90;;;;;;5078620;28;20024;-55
2023/07/06 01:42:42;;;;;;;9.77;5.13;;;12.10;99.90;;;;;;5078120;28;20096;-55
2023/07/06 01:45:18;;;;;;;9.90;5.82;;;12.10;99.90;;;;;;5078804;28;20096;-54
2023/07/06 01:47:55;;;;;;;10.43;5.53;;;12.10;99.90;;;;;;5077302;28;20075;-55
2023/07/06 01:50:48;;;;;;;11.15;5.50;;;12.10;99.90;;;;;;5078711;28;20048;-56
2023/07/06 01:53:25;;;;;;;9.77;5.75;;;12.10;99.90;;;;;;5073095;28;20076;-54
2023/07/06 01:56:01;;;;;;;12.13;5.88;;;12.10;99.90;;;;;;5075984;28;20045;-56
2023/07/06 01:58:47;;;;;;;9.85;5.70;;;12.10;99.90;;;;;;5078524;28;20534;-55
2023/07/06 02:01:23;;;;;;;11.18;5.88;;;12.20;99.90;;;;;;5077615;28;20048;-56
2023/07/06 02:03:51;;;;;;;9.90;5.78;;;12.20;99.90;;;;;;5078192;28;20096;-55
2023/07/06 02:06:17;;;;;;;11.77;5.53;;;12.30;99.90;;;;;;5078659;28;20044;-56
2023/07/06 02:08:43;;;;;;;10.55;5.63;;;12.20;99.90;;;;;;5077234;28;20400;-56
2023/07/06 02:11:10;;;;;;;10.00;6.15;;;12.30;99.90;;;;;;5078643;28;20112;-55
2023/07/06 02:13:37;;;;;;;11.13;5.68;;;12.30;99.90;;;;;;5077169;28;20122;-55
2023/07/06 02:16:05;;;;;;;10.93;5.60;;;12.30;99.90;;;;;;5078739;28;20075;-55
2023/07/06 02:18:33;;;;;;;10.43;6.03;;;12.30;99.90;;;;;;5077997;28;20044;-54
2023/07/06 02:21:02;;;;;;;8.68;5.55;;;12.30;99.90;;;;;;5077800;28;20041;-55
2023/07/06 02:23:29;;;;;;;10.73;5.38;;;12.30;99.90;;;;;;5078565;28;20517;-55
2023/07/06 02:25:55;;;;;;;11.88;6.10;;;12.30;99.90;;;;;;5077422;28;20047;-55
2023/07/06 02:28:22;;;;;;;9.30;5.22;;;12.30;99.90;;;;;;5078576;28;20473;-56
2023/07/06 02:30:54;;;;;;;10.10;6.15;;;12.40;99.90;;;;;;5077000;28;20056;-56
2023/07/06 02:33:21;;;;;;;11.98;5.80;;;12.40;99.90;;;;;;5078137;28;20125;-56
2023/07/06 02:35:47;;;;;;;10.70;6.15;;;12.40;99.90;;;;;;5077862;28;20063;-54
2023/07/06 02:38:15;;;;;;;10.40;5.93;;;12.50;99.90;;;;;;5077566;28;20037;-56
2023/07/06 02:40:41;;;;;;;13.25;6.15;;;12.40;99.90;;;;;;5078372;28;20064;-56
2023/07/06 02:43:07;;;;;;;11.80;6.32;;;12.40;99.90;;;;;;5077404;28;20102;-56
2023/07/06 02:45:33;;;;;;;12.07;6.47;;;12.30;99.90;;;;;;5078652;28;20052;-56
2023/07/06 02:47:59;;;;;;;10.43;5.53;;;12.40;99.90;;;;;;5076837;28;20049;-55
2023/07/06 02:50:26;;;;;;;12.52;6.82;;;12.30;99.90;;;;;;5078156;28;20087;-55
2023/07/06 02:52:52;;;;;;;13.88;6.80;;;12.40;99.90;;;;;;5077853;28;20052;-55
2023/07/06 02:55:17;;;;;;;12.57;6.88;;;12.30;99.90;;;;;;5077624;28;20480;-56
2023/07/06 02:57:43;;;;;;;10.55;6.88;;;12.40;99.90;;;;;;5078084;28;20032;-55
2023/07/06 03:00:16;;;;;;;13.23;6.57;;;12.30;99.90;;;;;;5075411;28;20043;-54
2023/07/06 03:02:43;;;;;;;12.57;6.72;;;12.30;99.90;;;;;;5078144;28;20048;-56
2023/07/06 03:05:10;;;;;;;10.40;6.25;;;12.30;99.90;;;;;;5076459;28;20500;-54
2023/07/06 03:07:35;;;;;;;12.63;6.65;;;12.30;99.90;;;;;;5077944;28;20094;-56
2023/07/06 03:10:03;;;;;;;12.88;7.05;;;12.30;99.90;;;;;;5076191;28;20087;-55
2023/07/06 03:12:41;;;;;;;10.48;6.68;;;12.20;99.90;;;;;;5077267;28;20493;-56
2023/07/06 03:15:15;;;;;;;11.32;6.60;;;12.20;99.90;;;;;;5077596;28;20045;-55
2023/07/06 03:17:48;;;;;;;9.07;5.40;;;12.20;99.90;;;;;;5076824;28;20048;-55
2023/07/06 03:20:18;;;;;;;11.38;6.60;;;12.20;99.90;;;;;;5078106;28;20111;-57
2023/07/06 03:22:48;;;;;;;10.32;6.78;;;12.20;99.90;;;;;;5077050;28;20511;-56
2023/07/06 03:25:15;;;;;;;11.18;6.65;;;12.20;99.90;;;;;;5077094;28;20488;-55
2023/07/06 03:27:42;;;;;;;13.35;7.50;;;12.20;99.90;;;;;;5077739;28;20048;-56
2023/07/06 03:30:10;;;;;;;11.10;6.88;;;12.20;99.90;;;;;;5076862;28;20072;-55
2023/07/06 03:32:37;;;;;;;9.70;6.15;;;12.20;99.90;;;;;;5077955;28;20040;-56
2023/07/06 03:35:11;;;;;;;10.77;6.75;;;12.20;99.90;;;;;;5076173;28;20051;-56
2023/07/06 03:37:38;;;;;;;12.70;6.90;;;12.10;99.90;;;;;;5077405;28;20074;-56
2023/07/06 03:40:10;;;;;;;13.00;6.95;;;12.10;99.90;;;;;;5077153;28;20052;-56
2023/07/06 03:42:40;;;;;;;15.15;7.22;;;12.20;99.90;;;;;;5076730;28;20055;-56
2023/07/06 03:45:07;;;;;;;12.88;6.75;;;12.20;99.90;;;;;;5077567;28;20043;-55
2023/07/06 03:47:34;;;;;;;12.40;6.88;;;12.10;99.90;;;;;;5076352;28;20052;-56
2023/07/06 03:50:00;;;;;;;11.35;7.25;;;12.10;99.90;;;;;;5079385;28;20074;-55
2023/07/06 03:52:28;;;;;;;12.80;7.15;;;12.20;99.90;;;;;;5080238;28;20040;-54
2023/07/06 03:54:54;;;;;;;13.45;8.05;;;12.20;99.90;;;;;;5080711;28;20479;-56
2023/07/06 03:57:20;;;;;;;13.15;7.88;;;12.20;99.90;;;;;;5079572;28;20037;-54
2023/07/06 03:59:46;;;;;;;14.25;7.57;;;12.20;99.90;;;;;;5080301;28;20033;-55
2023/07/06 04:02:12;;;;;;;12.18;7.50;;;12.20;99.90;;;;;;5081286;28;20095;-55
2023/07/06 04:04:39;;;;;;;11.50;6.82;;;12.20;99.90;;;;;;5079652;28;20047;-56
2023/07/06 04:07:07;;;;;;;11.50;6.90;;;12.20;99.90;;;;;;5080959;28;20153;-56
2023/07/06 04:09:33;;;;;;;12.05;8.55;;;12.30;99.90;;;;;;5079426;28;20060;-55
2023/07/06 04:12:00;;;;;;;12.95;7.85;;;12.40;99.90;;;;;;5080660;28;20500;-57
2023/07/06 04:14:26;;;;;;;13.85;7.30;;;12.30;99.90;;;;;;5069705;28;20050;-56
2023/07/06 04:16:54;;;;;;;13.20;7.75;;;12.30;99.90;;;;;;5076717;28;20042;-56
2023/07/06 04:19:20;;;;;;;13.90;7.70;;;12.40;99.90;;;;;;5066039;28;20124;-55
2023/07/06 04:21:45;;;;;;;14.25;8.18;;;12.40;99.90;;;;;;5059133;28;20044;-57
2023/07/06 04:24:11;;;;;;;14.27;8.10;;;12.40;99.90;;;;;;5060982;28;20140;-56
2023/07/06 04:26:39;;;;;;;12.60;7.25;;;12.40;99.90;;;;;;5059303;28;20048;-55
2023/07/06 04:29:09;;;;;;;14.27;7.70;;;12.50;99.90;;;;;;5060396;28;20045;-55
2023/07/06 04:31:39;;;;;;;15.40;7.80;;;12.50;99.90;;;;;;5060174;28;20339;-55
2023/07/06 04:34:06;;;;;;;13.23;7.70;;;12.60;99.90;;;;;;5059838;28;20051;-56
2023/07/06 04:36:31;;;;;;;14.07;8.05;;;12.60;99.90;;;;;;5059698;28;20083;-56
2023/07/06 04:39:02;;;;;;;12.77;7.35;;;12.60;99.90;;;;;;5058927;28;20041;-56
2023/07/06 04:41:28;;;;;;;14.55;8.32;;;12.70;99.90;;;;;;5060617;28;20037;-56
2023/07/06 04:43:55;;;;;;;13.15;7.80;;;12.60;99.90;;;;;;5059204;28;20037;-55
2023/07/06 04:46:21;;;;;;;12.55;7.50;;;12.60;99.90;;;;;;5060019;28;20075;-56
2023/07/06 04:48:47;;;;;;;12.68;7.20;;;12.70;99.90;;;;;;5059979;28;20457;-56
2023/07/06 04:51:13;;;;;;;14.07;8.15;;;12.60;99.90;;;;;;5059546;28;20051;-56
2023/07/06 04:53:40;;;;;;;14.20;7.53;;;12.80;99.90;;;;;;5065488;28;20092;-56
2023/07/06 04:56:06;;;;;;;11.93;7.63;;;13.00;99.90;;;;;;5078668;28;20036;-56
2023/07/06 04:58:32;;;;;;;13.60;8.20;;;13.10;99.90;;;;;;5080097;28;20116;-56
2023/07/06 05:01:06;;;;;;;13.45;8.07;;;13.20;99.90;;;;;;5077678;28;20559;-55
2023/07/06 05:03:32;;;;;;;14.27;8.32;;;13.30;99.90;;;;;;5079278;28;20041;-56
2023/07/06 05:06:07;;;;;;;15.07;8.30;;;13.50;99.90;;;;;;5078817;28;20071;-55
2023/07/06 05:08:33;;;;;;;12.88;7.18;;;13.50;99.90;;;;;;5078803;28;20078;-56
2023/07/06 05:11:03;;;;;;;12.18;7.40;;;13.60;99.90;;;;;;5079403;28;20106;-55
2023/07/06 05:13:29;;;;;;;13.98;8.52;;;13.60;99.90;;;;;;5078262;28;20039;-51
2023/07/06 05:15:55;;;;;;;14.57;7.40;;;13.70;99.90;;;;;;5078618;28;20044;-55
2023/07/06 05:18:21;;;;;;;13.80;7.93;;;13.80;99.90;;;;;;5077282;28;20040;-55
2023/07/06 05:20:49;;;;;;;16.40;7.72;;;13.90;99.90;;;;;;5079155;28;20044;-54
2023/07/06 05:23:17;;;;;;;13.52;7.35;;;13.90;99.90;;;;;;5079096;28;20072;-54
2023/07/06 05:25:43;;;;;;;14.05;7.53;;;14.00;99.90;;;;;;5075909;28;20072;-54
2023/07/06 05:28:11;;;;;;;15.40;8.18;;;14.10;99.90;;;;;;5075493;28;20142;-55
2023/07/06 05:30:42;;;;;;;13.63;8.18;;;14.20;99.90;;;;;;5073676;28;20052;-55
2023/07/06 05:33:08;;;;;;;15.27;8.90;;;14.20;99.90;;;;;;5075677;28;20045;-56
2023/07/06 05:35:34;;;;;;;16.00;7.68;;;14.30;99.90;;;;;;5074665;28;20051;-55
2023/07/06 05:38:00;;;;;;;16.73;8.40;;;14.30;99.90;;;;;;5074109;28;20084;-55
2023/07/06 05:40:27;;;;;;;14.85;8.55;;;14.50;99.90;;;;;;5071061;28;20052;-55
2023/07/06 05:42:57;;;;;;;15.38;8.57;;;14.50;99.90;;;;;;5062813;28;20075;-56
2023/07/06 05:45:23;;;;;;;14.82;8.43;;;14.60;99.90;;;;;;5061858;28;20041;-56
2023/07/06 05:47:49;;;;;;;13.52;7.70;;;14.70;99.90;;;;;;5052330;28;20140;-56
2023/07/06 05:50:14;;;;;;;13.00;7.97;;;14.90;99.90;;;;;;5054516;28;20037;-56
2023/07/06 05:52:41;;;;;;;15.98;8.20;;;14.90;99.90;;;;;;5054151;28;20384;-55
2023/07/06 05:55:08;;;;;;;16.80;8.50;;;15.00;99.90;;;;;;5071845;28;20507;-55
2023/07/06 05:57:34;;;;;;;16.23;8.70;;;15.00;99.90;;;;;;5074668;28;20087;-55
2023/07/06 06:00:01;;;;;;;14.15;9.20;;;15.10;99.90;;;;;;5073972;28;20849;-55
2023/07/06 06:02:27;;;;;;;14.45;8.38;;;15.20;99.90;;;;;;5074253;28;20041;-56
2023/07/06 06:04:53;;;;;;;16.92;10.02;;;15.20;99.90;;;;;;5072971;28;20056;-55
2023/07/06 06:07:19;;;;;;;17.80;10.32;;;15.30;99.90;;;;;;5073826;28;20078;-55
2023/07/06 06:09:47;;;;;;;18.20;9.80;;;15.40;99.90;;;;;;5073511;28;20087;-55
2023/07/06 06:12:18;;;;;;;17.02;9.20;;;15.40;99.90;;;;;;5072952;28;20054;-55
2023/07/06 06:14:53;;;;;;;17.90;9.02;;;15.40;99.90;;;;;;5073816;28;20044;-55
2023/07/06 06:17:19;;;;;;;16.30;9.48;;;15.60;99.90;;;;;;5071597;28;20054;-55
2023/07/06 06:19:46;;;;;;;16.90;7.78;;;15.60;99.90;;;;;;5073452;28;20047;-54
2023/07/06 06:22:14;;;;;;;16.73;8.73;;;15.70;99.90;;;;;;5072738;28;20104;-54
2023/07/06 06:24:40;;;;;;;18.13;9.73;;;15.70;99.90;;;;;;5063107;28;20051;-54
2023/07/06 06:27:06;;;;;;;15.95;8.38;;;15.70;99.90;;;;;;5062009;28;20051;-55
2023/07/06 06:29:33;;;;;;;20.17;9.40;;;15.80;99.90;;;;;;5073697;28;20036;-54
2023/07/06 06:32:02;;;;;;;21.02;9.30;;;16.00;99.90;;;;;;5067744;28;20052;-54
2023/07/06 06:34:28;;;;;;;18.40;8.68;;;15.90;99.90;;;;;;5061542;28;20078;-55
2023/07/06 06:36:55;;;;;;;20.05;9.23;;;16.10;99.90;;;;;;5065520;28;20115;-53
2023/07/06 06:39:21;;;;;;;17.90;7.90;;;16.30;99.90;;;;;;5072311;28;20048;-53
2023/07/06 06:41:47;;;;;;;14.00;8.45;;;16.30;99.90;;;;;;5062917;28;20040;-54
2023/07/06 06:44:14;;;;;;;16.60;8.75;;;16.30;99.90;;;;;;5066615;28;20066;-54
2023/07/06 06:46:40;;;;;;;17.45;8.88;;;16.40;99.90;;;;;;5075698;28;20048;-55
2023/07/06 06:49:06;;;;;;;15.77;7.80;;;16.50;99.90;;;;;;5077797;28;20044;-53
2023/07/06 06:51:32;;;;;;;17.27;9.13;;;16.70;99.90;;;;;;5075266;28;20470;-54
2023/07/06 06:53:58;;;;;;;18.13;8.77;;;16.60;99.90;;;;;;5077221;28;20040;-55
2023/07/06 06:56:24;;;;;;;15.32;8.80;;;16.50;99.90;;;;;;5076726;28;20044;-53
2023/07/06 06:58:51;;;;;;;16.33;8.60;;;16.40;99.90;;;;;;5078059;28;20056;-52
2023/07/06 07:01:17;;;;;;;15.30;8.07;;;16.50;99.90;;;;;;5077515;28;20442;-55
2023/07/06 07:03:45;;;;;;;16.85;7.80;;;16.70;99.90;;;;;;5077207;28;20051;-54
2023/07/06 07:06:12;;;;;;;17.38;9.05;;;16.70;99.90;;;;;;5077613;28;20049;-54
2023/07/06 07:08:43;;;;;;;20.45;7.70;;;16.80;99.90;;;;;;5075180;28;20507;-55
2023/07/06 07:11:10;;;;;;;14.88;7.78;;;17.10;99.90;;;;;;5077520;28;20059;-54
2023/07/06 07:13:37;;;;;;;18.88;6.63;;;17.00;99.90;;;;;;5076329;28;20059;-55
2023/07/06 07:16:05;;;;;;;14.73;5.90;;;17.10;99.90;;;;;;5077346;28;20071;-55
2023/07/06 07:18:32;;;;;;;15.35;5.93;;;17.20;99.90;;;;;;5076685;28;20503;-54
2023/07/06 07:20:58;;;;;;;12.65;4.95;;;17.30;99.90;;;;;;5076562;28;20037;-55
2023/07/06 07:23:26;;;;;;;12.13;5.13;;;17.40;99.90;;;;;;5077577;28;20079;-51
2023/07/06 07:25:52;;;;;;;13.65;6.05;;;17.50;99.90;;;;;;5079080;28;20048;-55
2023/07/06 07:28:18;;;;;;;15.43;5.53;;;17.50;99.90;;;;;;5081279;28;20075;-55
2023/07/06 07:30:57;;;;;;;11.13;3.92;;;17.60;99.90;;;;;;5079925;28;20037;-54
2023/07/06 07:33:24;;;;;;;10.27;3.72;;;17.50;99.90;;;;;;5080488;28;20044;-54
2023/07/06 07:35:53;;;;;;;10.05;4.15;;;17.50;99.90;;;;;;5080736;28;20342;-54
2023/07/06 07:38:20;;;;;;;13.00;4.18;;;17.60;99.90;;;;;;5079907;28;20037;-55
2023/07/06 07:40:56;;;;;;;9.20;3.55;;;17.50;99.90;;;;;;5080931;28;20052;-54
2023/07/06 07:43:27;;;;;;;10.70;3.30;;;17.70;99.90;;;;;;5079671;28;20051;-55
2023/07/06 07:45:55;;;;;;;9.33;3.03;;;17.80;99.90;;;;;;5081003;28;20048;-55
2023/07/06 07:48:23;;;;;;;8.98;2.40;;;18.00;99.90;;;;;;5080384;28;20101;-53
2023/07/06 07:50:51;;;;;;;7.95;2.25;;;18.10;99.90;;;;;;5080550;28;20033;-54
2023/07/06 07:53:18;;;;;;;7.43;3.00;;;18.10;99.90;;;;;;5081073;28;20062;-55
2023/07/06 07:55:44;;;;;;;7.65;2.35;;;18.20;99.90;;;;;;5079975;28;20040;-56
2023/07/06 07:58:10;;;;;;;8.85;2.70;;;18.30;99.90;;;;;;5080783;28;20082;-54
2023/07/06 08:00:36;;;;;;;7.72;2.90;;;18.00;99.90;;;;;;5077895;28;20543;-55
2023/07/06 08:03:06;;;;;;;9.50;2.13;;;18.20;99.90;;;;;;5081104;28;20060;-55
2023/07/06 08:05:32;;;;;;;6.28;2.03;;;18.40;99.90;;;;;;5079955;28;20125;-54
2023/07/06 08:07:58;;;;;;;10.18;2.67;;;18.40;99.90;;;;;;5080112;28;20137;-54
2023/07/06 08:10:24;;;;;;;7.47;1.85;;;18.30;99.90;;;;;;5080405;28;20049;-52
2023/07/06 08:12:49;;;;;;;8.02;2.30;;;18.50;99.90;;;;;;5079588;28;20098;-53
2023/07/06 08:15:15;;;;;;;8.02;2.42;;;18.40;99.90;;;;;;5080476;28;20037;-53
2023/07/06 08:17:41;;;;;;;8.23;2.13;;;18.20;99.90;;;;;;5078736;28;20044;-54
2023/07/06 08:20:10;;;;;;;8.40;3.22;;;18.40;99.90;;;;;;5079950;28;20120;-54
2023/07/06 08:22:36;;;;;;;7.55;2.15;;;18.20;99.90;;;;;;5079580;28;20366;-55
2023/07/06 08:25:08;;;;;;;6.10;1.75;;;18.20;99.90;;;;;;5078404;28;20048;-53
2023/07/06 08:27:35;;;;;;;6.18;2.63;;;18.20;99.90;;;;;;5080196;28;20450;-54
2023/07/06 08:30:01;;;;;;;5.65;2.10;;;18.20;99.90;;;;;;5079262;28;20055;-53
2023/07/06 08:32:27;;;;;;;9.98;2.70;;;18.00;99.90;;;;;;5080420;28;20121;-54
2023/07/06 08:34:53;;;;;;;6.78;2.10;;;17.90;99.90;;;;;;5078918;28;20048;-54
2023/07/06 08:37:20;;;;;;;6.03;2.35;;;17.80;99.90;;;;;;5078722;28;20124;-54
2023/07/06 08:39:46;;;;;;;8.10;2.60;;;17.90;99.90;;;;;;5079591;28;20049;-53
2023/07/06 08:42:16;;;;;;;8.50;2.33;;;17.80;99.90;;;;;;5079766;28;20129;-56
2023/07/06 08:44:52;;;;;;;6.32;2.10;;;17.90;99.90;;;;;;5080126;28;20052;-54
2023/07/06 08:47:19;;;;;;;7.68;2.63;;;17.90;99.90;;;;;;5079011;28;20493;-55
2023/07/06 08:49:45;;;;;;;8.65;2.35;;;17.80;99.90;;;;;;5080312;28;20040;-55
2023/07/06 08:52:12;;;;;;;7.05;2.30;;;17.90;99.90;;;;;;5078193;28;20053;-55
2023/07/06 08:54:39;;;;;;;6.90;2.17;;;17.80;99.90;;;;;;5079400;28;20055;-54
2023/07/06 08:57:32;;;;;;;4.47;2.03;;;17.90;99.90;;;;;;5078866;28;20126;-53
2023/07/06 08:59:57;;;;;;;7.13;2.35;;;18.00;99.90;;;;;;5076375;28;20048;-56
2023/07/06 09:02:25;;;;;;;6.68;2.13;;;18.20;99.90;;;;;;5079620;28;20067;-55
2023/07/06 09:04:53;;;;;;;10.10;2.42;;;18.20;99.90;;;;;;5078234;28;20044;-54
2023/07/06 09:07:32;;;;;;;11.75;3.20;;;18.20;99.90;;;;;;5079332;28;20649;-55
2023/07/06 09:09:58;;;;;;;8.75;2.80;;;18.20;99.90;;;;;;5078754;28;20049;-55
2023/07/06 09:12:32;;;;;;;8.27;2.40;;;18.00;99.90;;;;;;5078782;28;20484;-55
2023/07/06 09:14:59;;;;;;;8.60;2.50;;;17.90;99.90;;;;;;5079335;28;20126;-54
2023/07/06 09:17:26;;;;;;;7.35;2.47;;;17.90;99.90;;;;;;5077755;28;20076;-54
2023/07/06 09:19:53;;;;;;;8.25;2.42;;;17.90;99.90;;;;;;5078865;28;20068;-53
2023/07/06 09:22:22;;;;;;;8.73;3.22;;;17.90;99.90;;;;;;5071516;28;20037;-55
2023/07/06 09:24:49;;;;;;;7.53;2.40;;;18.00;99.90;;;;;;5068632;28;20048;-53
2023/07/06 09:27:23;;;;;;;6.97;2.33;;;18.00;99.90;;;;;;5071563;28;20044;-54
2023/07/06 09:30:00;;;;;;;8.40;2.10;;;18.00;99.90;;;;;;5065776;28;20041;-54
2023/07/06 09:32:27;;;;;;;7.57;2.33;;;18.20;99.90;;;;;;5062121;28;20111;-55
2023/07/06 09:35:05;;;;;;;5.25;2.20;;;18.50;99.90;;;;;;5066464;28;20132;-54
2023/07/06 09:37:30;;;;;;;8.27;2.55;;;18.80;99.90;;;;;;5059084;28;20067;-54
2023/07/06 09:40:03;;;;;;;11.43;3.20;;;19.10;99.90;;;;;;5058833;28;20048;-53
2023/07/06 09:42:31;;;;;;;6.93;2.05;;;18.90;99.90;;;;;;5076015;28;20045;-53
2023/07/06 09:44:58;;;;;;;6.55;1.80;;;18.90;99.90;;;;;;5078681;28;20311;-54
2023/07/06 09:47:24;;;;;;;5.95;1.75;;;18.80;99.90;;;;;;5070365;28;20044;-54
2023/07/06 09:49:59;;;;;;;6.05;1.63;;;18.70;99.90;;;;;;5067569;28;20495;-53
2023/07/06 09:52:28;;;;;;;6.47;1.70;;;18.70;99.90;;;;;;5057896;28;20071;-54
2023/07/06 09:55:19;;;;;;;7.30;2.13;;;19.20;99.90;;;;;;5068548;28;20487;-54
2023/07/06 09:57:47;;;;;;;7.30;2.05;;;19.50;97.40;;;;;;5074081;28;20063;-53
2023/07/06 10:00:19;;;;;;;6.32;1.65;;;19.70;94.10;;;;;;5067222;28;20049;-55
2023/07/06 10:03:31;;;;;;;4.60;1.70;;;19.80;95.10;;;;;;5068870;28;20188;-53
2023/07/06 10:06:17;;;;;;;5.10;1.40;;;20.00;93.30;;;;;;5035476;28;20065;-54
2023/07/06 10:09:17;;;;;;;4.80;1.38;;;19.90;76.40;;;;;;5034234;28;20057;-54
2023/07/06 10:11:49;;;;;;;5.07;1.40;;;19.70;86.10;;;;;;5055213;28;20061;-54
2023/07/06 10:14:20;;;;;;;;;;;19.90;83.00;;;;;;5062187;28;20090;-54
2023/07/06 10:16:52;;;;;;;5.30;1.50;;;20.00;83.30;;;;;;5073712;28;19943;-54
2023/07/06 10:19:25;;;;;;;;;;;20.20;83.40;;;;;;5078343;28;20045;-55
2023/07/06 10:22:13;;;;;;;7.72;1.77;;;20.30;82.20;;;;;;5076220;28;19920;-54
2023/07/06 10:24:57;;;;;;;5.60;1.42;;;20.40;72.90;;;;;;5074907;28;20091;-53
2023/07/06 10:27:45;;;;;;;6.53;2.40;;;20.80;75.50;;;;;;5076499;28;20037;-54
2023/07/06 10:30:28;;;;;;;5.32;1.80;;;20.70;72.50;;;;;;5076133;28;20044;-55
2023/07/06 10:32:57;;;;;;;5.63;1.55;;;20.60;75.50;;;;;;5077213;28;20047;-55
2023/07/06 10:35:38;;;;;;;5.20;1.40;;;20.80;77.50;;;;;;5077090;28;20051;-52
2023/07/06 10:38:06;;;;;;;5.07;1.60;;;20.80;73.40;;;;;;5077077;28;20059;-54
2023/07/06 10:40:32;;;;;;;6.57;1.60;;;20.80;71.50;;;;;;5078103;28;20317;-53
2023/07/06 10:43:13;;;;;;;5.32;1.60;;;21.00;77.20;;;;;;5076658;28;20454;-56
2023/07/06 10:45:56;;;;;;;5.13;1.48;;;20.80;76.40;;;;;;5078350;28;20063;-57
2023/07/06 10:48:25;;;;;;;6.15;1.88;;;20.50;74.50;;;;;;5077619;28;20067;-58
2023/07/06 10:50:50;;;;;;;4.88;1.58;;;20.30;75.10;;;;;;5076884;28;20036;-59
2023/07/06 10:53:37;;;;;;;7.40;1.58;;;20.60;76.90;;;;;;5077679;28;20039;-58
2023/07/06 10:56:04;;;;;;;4.15;1.63;;;20.40;80.40;;;;;;5074933;28;20048;-59
2023/07/06 10:58:36;;;;;;;4.38;1.42;;;20.70;84.60;;;;;;5078609;28;20063;-59
2023/07/06 11:01:09;;;;;;;4.22;1.40;;;20.90;83.30;;;;;;5081236;28;20048;-59
2023/07/06 11:03:36;;;;;;;5.00;1.70;;;20.50;70.40;;;;;;5081393;28;20105;-59
2023/07/06 11:06:06;;;;;;;5.53;1.80;;;20.20;71.00;;;;;;5081710;28;20104;-59
2023/07/06 11:09:04;;;;;;;5.80;2.00;;;19.80;73.70;;;;;;5080422;28;20082;-58
2023/07/06 11:11:34;;;;;;;5.05;1.80;;;19.60;84.30;;;;;;5081517;28;20098;-59
2023/07/06 11:14:36;;;;;;;5.65;1.60;;;19.70;91.80;;;;;;5081096;28;20128;-58
2023/07/06 11:17:25;;;;;;;6.97;1.90;;;19.60;89.20;;;;;;5080641;28;20071;-59
2023/07/06 11:20:13;;;;;;;5.80;1.90;;;19.80;94.80;;;;;;5081865;28;20496;-58
2023/07/06 11:22:40;;;;;;;4.75;2.08;;;19.80;95.20;;;;;;5080706;28;20052;-58
2023/07/06 11:25:11;;;;;;;6.38;1.90;;;19.90;89.60;;;;;;5080714;28;20045;-59
2023/07/06 11:27:43;;;;;;;6.60;1.90;;;20.10;82.90;;;;;;5081111;28;20066;-58
2023/07/06 11:30:17;;;;;;;7.22;1.90;;;20.50;91.50;;;;;;5079313;28;20481;-59
2023/07/06 11:32:49;;;;;;;5.68;2.00;;;20.60;88.70;;;;;;5080009;28;20048;-59
2023/07/06 11:35:33;;;;;;;;;;;20.30;86.40;;;;;;5080974;28;20048;-59
2023/07/06 11:37:59;;;;;;;4.13;1.60;;;20.00;82.30;;;;;;5080131;28;20003;-58
2023/07/06 11:41:16;;;;;;;7.30;2.03;;;20.00;84.90;;;;;;5081293;28;20036;-58
2023/07/06 11:44:13;;;;;;;6.45;1.90;;;19.80;91.20;;;;;;5062200;28;20056;-59
2023/07/06 11:46:48;;;;;;;5.90;1.80;;;20.30;92.70;;;;;;5080243;28;20059;-59
2023/07/06 11:49:33;;;;;;;4.22;1.52;;;20.60;85.40;;;;;;5080900;28;20052;-58
2023/07/06 11:51:58;;;;;;;7.25;2.03;;;21.10;77.30;;;;;;5079617;28;20068;-59
2023/07/06 11:54:49;;;;;;;4.35;1.20;;;21.10;75.20;;;;;;5080913;28;20044;-56
2023/07/06 11:57:41;;;;;;;5.15;2.13;;;21.30;75.30;;;;;;5080583;28;20124;-59
2023/07/06 12:00:52;;;;;;;;;;;21.00;74.50;;;;;;5079998;28;20070;-59
2023/07/06 12:03:08;;;;;;;9.15;2.40;;;20.20;80.10;;;;;;5073182;28;19931;-59
2023/07/06 12:05:35;;;;;;;6.65;2.40;;;20.10;88.70;;;;;;5080559;28;20040;-58
2023/07/06 12:08:09;;;;;;;5.68;2.22;;;20.50;90.20;;;;;;5079681;28;20082;-59
2023/07/06 12:10:36;;;;;;;7.53;2.30;;;20.20;89.80;;;;;;5079548;28;20049;-58
2023/07/06 12:13:04;;;;;;;4.82;1.90;;;20.30;85.00;;;;;;5079352;28;20045;-59
2023/07/06 12:15:31;;;;;;;4.88;2.00;;;20.30;89.90;;;;;;5080800;28;20045;-58
2023/07/06 12:17:57;;;;;;;6.18;1.70;;;20.10;93.00;;;;;;5078690;28;20041;-58
2023/07/06 12:20:25;;;;;;;4.22;1.90;;;19.80;92.40;;;;;;5072760;28;20056;-58
2023/07/06 12:22:57;;;;;;;8.05;1.85;;;19.80;92.00;;;;;;5064606;28;20095;-58
2023/07/06 12:25:30;;;;;;;5.22;1.77;;;19.70;94.30;;;;;;5069734;28;20377;-58
2023/07/06 12:28:01;;;;;;;4.72;1.60;;;19.60;92.70;;;;;;5070233;28;20475;-59
2023/07/06 12:30:33;;;;;;;4.95;1.83;;;19.60;82.20;;;;;;5061442;28;20052;-58
2023/07/06 12:33:04;;;;;;;5.20;1.70;;;20.00;91.30;;;;;;5070483;28;20055;-58
2023/07/06 12:35:30;;;;;;;7.25;2.35;;;19.90;80.50;;;;;;5067855;28;20056;-57
2023/07/06 12:37:56;;;;;;;5.13;1.95;;;19.80;82.10;;;;;;5068005;28;20049;-58
2023/07/06 12:40:27;;;;;;;4.72;1.35;;;20.20;76.80;;;;;;5065832;28;20515;-58
2023/07/06 12:42:53;;;;;;;5.90;1.63;;;20.10;79.60;;;;;;5068778;28;20551;-58
2023/07/06 12:45:22;;;;;;;5.80;1.75;;;20.00;76.80;;;;;;5059061;28;20049;-58
2023/07/06 12:48:03;;;;;;;4.07;1.35;;;20.10;75.70;;;;;;5056086;28;20040;-58
2023/07/06 12:50:39;;;;;;;4.17;1.27;;;20.50;74.50;;;;;;5059201;28;20079;-58
2023/07/06 12:53:22;;;;;;;5.93;1.40;;;20.70;72.80;;;;;;5059387;28;20045;-59
2023/07/06 12:55:49;;;;;;;3.95;1.38;;;20.90;61.60;;;;;;5078095;28;20040;-59
2023/07/06 12:58:34;;;;;;;6.50;1.42;;;21.50;70.50;;;;;;5078910;28;20432;-57
2023/07/06 13:01:07;;;;;;;4.38;1.10;;;21.20;57.10;;;;;;5071377;28;20070;-58